Knob Lick, KY (42154)

7:59 PM CDT on May 29, 2015 (GMT -0500)
Rex KY in Hart County | | Change Station
CLOSE
Current Station
Personal Weather Station
Location: Hardyville, KY
Elevation: 721 ft
Nearby Weather Stations

Elev 721 ft 37.23 °N, 85.77 °W | Updated 20 seconds ago

Partly Cloudy
Partly Cloudy
74.1 °F
Feels Like 73 °F
N
0.0
Wind Variable Wind from ENE
Gusts 0.0 mph

Today
High -- | Low -- °F
--% Chance of Precip.
Yesterday
High -- | Low -- °F
Precip. -- in
5:25 AM 7:54 PM
Waxing Gibbous, 87% visible
Pressure 30.08 in
Visibility 10.0 miles
Clouds Scattered Clouds 7000 ft
Heat Index 73 °F
Dew Point 71 °F
Humidity 89%
Rainfall 0.00 in
Snow Depth Not available.
UV 0.0 out of 12
Pollen 1.70 out of 12
Air Quality Not available.
Flu Activity No Activity
METAR KGLW 300030Z AUTO 16003KT 10SM SCT070 24/19 A3008 RMK AO2 T02420185

More Conditions Fewer Conditions

Pressure 30.08 in
Visibility 10.0 miles
Clouds Scattered Clouds 7000 ft
Heat Index 73 °F
Dew Point 71 °F
Humidity 89%
Rainfall 0.00 in
Snow Depth Not available.
UV 0.0 out of 12
Pollen 1.70 out of 12
Air Quality Not available.
Flu Activity No Activity
METAR KGLW 300030Z AUTO 16003KT 10SM SCT070 24/19 A3008 RMK AO2 T02420185

More Conditions Fewer Conditions

10-Day Weather Forecast

Almanac

Astronomy

May. 29, 2015 Rise Set
Actual Time
Civil Twilight
Nautical Twilight
Astronomical Twilight
Moon
Length of Visible Light
Length of Day
Tomorrow will be .
, % of the Moon is Illuminated

Today's Extremes

State Highs State Lows

Community

WunderPhotos

Upload Photos

1,825,411 photos uploaded!

WunderBlogs® & News

Nearby

Air Quality

  Air Quality AQ Index Pollutant
Not available.

Snow Depth

Station Depth Elevation

Earthquake Activity

City Distance Mag. Time & Date
Minimum magnitude displayed is 2.5.

Coastal Water Temperatures

Place Temperature

Stations

Nearby Weather Stations

Station Location Temp. Windchill Dew Point Humidity Wind Precip. Elev Updated Type